• Join FlightAware (Why Join?)
  • Login
  • US Flag 
05:06PM EDT


 

Airport Tracker/Info


-or-


 

Live Flight TrackerFlight Track Log ✈ TAM3555 ✈ 21-May-2013 ✈ SBCT / CWB - SBPA / POA

Flight Track Log - Related Links

Times and Time Zones

All times are in EDT time to prevent confusion due to time zone crossing. See the TAM3555 flight status page for this flight to view local times or setup timezone preferences in your user account.

Time Position Orientation Groundspeed Altitude Reporting Facility
EDT Latitude Longitude Course Direction KTS MPH feet Rate Location/Type
09:14PM -28.2995 -50.3930 201° Southwest  Level Estimated
09:15PM -28.3887 -50.4333 202° Southwest  Level Estimated
09:16PM -28.4779 -50.4737 202° Southwest  Level Estimated
09:17PM -28.5671 -50.5141 202° Southwest  Level Estimated
09:18PM -28.6563 -50.5546 202° Southwest  Level Estimated
09:19PM -28.7455 -50.5951 202° Southwest  Level Estimated
09:20PM -28.8346 -50.6358 202° Southwest  Level Estimated
09:21PM -28.9237 -50.6765 202° Southwest  Level Estimated
09:22PM -29.0129 -50.7173 202° Southwest  Level Estimated
09:23PM -29.1020 -50.7581 202° Southwest  Level Estimated
09:24PM -29.1911 -50.7990 202° Southwest  Level Estimated
09:25PM -29.2802 -50.8400 202° Southwest  Level Estimated
09:26PM -29.3693 -50.8811 202° Southwest  Level Estimated
09:27PM -29.4583 -50.9222 202° Southwest  Level Estimated
09:28PM -29.5474 -50.9634 202° Southwest  Level Estimated
09:29PM -29.6364 -51.0047 202° Southwest  Level Estimated
09:30PM -29.7254 -51.0460 202° Southwest  Level Estimated
09:31PM -29.8144 -51.0874 202° Southwest  Level Estimated
09:32PM -29.9034 -51.1289 202° Southwest  Level Estimated
09:33PM -29.9924 -51.1705 202° Southwest  Level Estimated
09:34PM -29.9944 -51.1714 202° Southwest  Level Estimated
09:35PM -29.9944 -51.1714 41° Northeast  Level Estimated
09:36PM -29.9944 -51.1714 41° Northeast  Level Estimated
09:37PM -29.9944 -51.1714 41° Northeast  Level Estimated
09:38PM -29.9944 -51.1714 41° Northeast  Level Estimated
09:39PM -29.9944 -51.1714 41° Northeast  Level Estimated
09:40PM -29.9944 -51.1714 41° Northeast  Level Estimated
09:41PM -29.9944 -51.1714 41° Northeast  Level Estimated
09:42PM -29.9944 -51.1714 41° Northeast  Level Estimated
09:43PM -29.9944 -51.1714 41° Northeast  Level Estimated
09:44PM -29.9944 -51.1714 41° Northeast  Level Estimated
09:45PM -29.9944 -51.1714 41° Northeast  Level Estimated
09:46PM -29.9944 -51.1714 41° Northeast  Level Estimated
09:47PM -29.9944 -51.1714 41° Northeast  Level Estimated
09:48PM -29.9944 -51.1714 41° Northeast  Level Estimated
09:49PM -29.9944 -51.1714 41° Northeast  Level Estimated